createdAt,value
2018-07-22T00:00:23.322Z,74.70
2018-07-22T00:02:51.209Z,75.00
2018-07-22T00:05:19.165Z,75.10
2018-07-22T00:07:47.011Z,76.30
2018-07-22T00:10:24.448Z,76.20
2018-07-22T00:12:52.211Z,75.20
2018-07-22T00:15:20.428Z,75.50
2018-07-22T00:17:48.126Z,74.80
2018-07-22T00:20:16.074Z,76.10
2018-07-22T00:22:43.889Z,76.20
2018-07-22T00:25:11.701Z,75.20
2018-07-22T00:27:39.581Z,74.80
2018-07-22T00:30:08.204Z,74.70
2018-07-22T00:32:36.083Z,75.40
2018-07-22T00:35:03.966Z,76.10
2018-07-22T00:40:00.094Z,75.90
2018-07-22T00:42:27.964Z,75.40
2018-07-22T00:44:55.655Z,75.30
2018-07-22T00:47:23.389Z,76.50
2018-07-22T00:49:51.081Z,77.00
2018-07-22T00:52:18.899Z,76.10
2018-07-22T00:54:46.614Z,75.90
2018-07-22T00:57:14.411Z,76.30
2018-07-22T00:59:42.359Z,76.70
2018-07-22T01:02:10.048Z,76.60
2018-07-22T01:04:37.842Z,75.60
2018-07-22T01:07:05.614Z,75.30
2018-07-22T01:09:33.257Z,75.10
2018-07-22T01:12:01.114Z,75.00
2018-07-22T01:14:28.886Z,76.10
2018-07-22T01:16:56.637Z,75.70
2018-07-22T01:19:24.251Z,75.10
2018-07-22T01:21:52.045Z,75.00
2018-07-22T01:24:19.987Z,74.90
2018-07-22T01:26:47.677Z,75.10
2018-07-22T01:29:15.369Z,75.50
2018-07-22T01:31:43.150Z,75.80
2018-07-22T01:34:10.791Z,77.10
2018-07-22T01:36:38.467Z,76.10
2018-07-22T01:39:07.862Z,76.50
2018-07-22T01:41:35.613Z,76.60
2018-07-22T01:44:03.347Z,76.40
2018-07-22T01:46:31.030Z,77.00
2018-07-22T01:48:58.706Z,77.00
2018-07-22T01:51:26.635Z,76.70
2018-07-22T01:53:54.369Z,76.30
2018-07-22T01:58:49.674Z,76.40
2018-07-22T02:01:17.438Z,76.50
2018-07-22T02:03:45.126Z,76.40
2018-07-22T02:06:12.825Z,76.60
2018-07-22T02:08:41.282Z,76.80
2018-07-22T02:11:08.994Z,76.60
2018-07-22T02:13:36.761Z,75.80
2018-07-22T02:16:04.497Z,75.60
2018-07-22T02:18:32.192Z,75.30
2018-07-22T02:20:59.917Z,75.70
2018-07-22T02:23:27.837Z,76.40
2018-07-22T02:25:55.541Z,76.70
2018-07-22T02:28:23.258Z,76.40
2018-07-22T02:30:51.165Z,75.90
2018-07-22T02:33:18.951Z,75.50
2018-07-22T02:38:14.232Z,75.40
2018-07-22T02:40:42.852Z,75.40
2018-07-22T02:43:10.615Z,75.40
2018-07-22T02:48:06.110Z,75.60
2018-07-22T02:50:33.850Z,75.70
2018-07-22T02:53:01.763Z,75.80
2018-07-22T02:55:29.507Z,75.70
2018-07-22T02:57:57.369Z,75.50
2018-07-22T03:00:25.223Z,75.50
2018-07-22T03:02:52.977Z,75.60
2018-07-22T03:05:20.807Z,75.40
2018-07-22T03:07:48.606Z,75.70
2018-07-22T03:10:17.292Z,75.60
2018-07-22T03:12:45.078Z,75.60
2018-07-22T03:15:12.904Z,76.30
2018-07-22T03:17:40.681Z,75.50
2018-07-22T03:20:08.871Z,75.40
2018-07-22T03:22:36.679Z,75.40
2018-07-22T03:25:04.458Z,75.50
2018-07-22T03:27:32.690Z,75.60
2018-07-22T03:30:00.434Z,75.70
2018-07-22T03:32:28.174Z,75.90
2018-07-22T03:34:55.885Z,76.80
2018-07-22T03:37:23.627Z,77.00
2018-07-22T03:39:51.311Z,76.90
2018-07-22T03:44:47.011Z,77.30
2018-07-22T03:47:14.771Z,77.30
2018-07-22T03:49:42.538Z,77.00
2018-07-22T03:52:10.348Z,77.00
2018-07-22T03:54:38.159Z,77.00
2018-07-22T03:57:05.892Z,76.90
2018-07-22T03:59:33.650Z,77.20
2018-07-22T04:02:01.303Z,77.40
2018-07-22T04:04:29.100Z,77.30
2018-07-22T04:06:56.937Z,76.50
2018-07-22T04:09:24.676Z,76.60
2018-07-22T04:11:52.540Z,76.30
2018-07-22T04:14:20.317Z,76.40
2018-07-22T04:16:47.979Z,76.40
2018-07-22T04:19:15.708Z,76.30
2018-07-22T04:21:43.593Z,76.90
2018-07-22T04:24:11.938Z,77.90
2018-07-22T04:26:39.574Z,76.70
2018-07-22T04:29:07.414Z,76.50
2018-07-22T04:31:35.122Z,76.80
2018-07-22T04:34:02.866Z,76.80
2018-07-22T04:36:30.620Z,76.60
2018-07-22T04:38:58.466Z,76.60
2018-07-22T04:41:26.267Z,76.50
2018-07-22T04:43:53.989Z,76.30
2018-07-22T04:46:21.717Z,76.40
2018-07-22T04:48:49.343Z,76.20
2018-07-22T04:51:17.095Z,76.80
2018-07-22T04:56:12.336Z,77.40
2018-07-22T04:58:40.328Z,77.50
2018-07-22T05:01:08.178Z,77.70
2018-07-22T05:03:35.989Z,77.50
2018-07-22T05:06:03.714Z,77.10
2018-07-22T05:08:31.520Z,77.80
2018-07-22T05:10:59.250Z,77.40
2018-07-22T05:13:26.953Z,77.20
2018-07-22T05:15:54.631Z,77.10
2018-07-22T05:18:22.421Z,77.30
2018-07-22T05:20:50.102Z,77.60
2018-07-22T05:23:17.804Z,77.40
2018-07-22T05:25:46.379Z,76.90
2018-07-22T05:28:14.107Z,77.10
2018-07-22T05:30:41.920Z,78.10
2018-07-22T05:33:09.708Z,77.80
2018-07-22T05:35:37.470Z,77.70
2018-07-22T05:38:05.154Z,77.50
2018-07-22T05:40:32.916Z,77.70
2018-07-22T05:43:00.651Z,77.50
2018-07-22T05:45:28.365Z,77.80
2018-07-22T05:47:56.086Z,77.20
2018-07-22T05:50:23.886Z,76.80
2018-07-22T05:52:51.657Z,77.10
2018-07-22T05:55:19.456Z,77.00
2018-07-22T05:57:47.219Z,77.70
2018-07-22T06:00:15.525Z,77.20
2018-07-22T06:02:43.434Z,77.30
2018-07-22T06:05:11.175Z,77.30
2018-07-22T06:10:06.733Z,77.90
2018-07-22T06:12:34.560Z,77.40
2018-07-22T06:15:02.352Z,77.30
2018-07-22T06:17:30.068Z,76.90
2018-07-22T06:19:57.775Z,76.90
2018-07-22T06:22:26.322Z,76.70
2018-07-22T06:24:54.111Z,77.10
2018-07-22T06:27:22.500Z,77.20
2018-07-22T06:29:50.248Z,77.00
2018-07-22T06:32:18.010Z,76.50
2018-07-22T06:34:45.662Z,76.70
2018-07-22T06:37:13.374Z,76.20
2018-07-22T06:39:41.149Z,76.00
2018-07-22T06:42:08.907Z,75.70
2018-07-22T06:44:36.945Z,75.80
2018-07-22T06:47:04.728Z,75.00
2018-07-22T06:49:32.426Z,75.50
2018-07-22T06:52:00.134Z,74.40
2018-07-22T06:54:27.828Z,75.50
2018-07-22T06:56:55.492Z,75.10
2018-07-22T06:59:23.387Z,75.70
2018-07-22T07:01:51.186Z,75.10
2018-07-22T07:04:19.194Z,75.60
2018-07-22T07:06:46.946Z,73.80
2018-07-22T07:09:14.719Z,73.50
2018-07-22T07:11:42.580Z,74.00
2018-07-22T07:14:10.702Z,73.50
2018-07-22T07:16:38.421Z,72.90
2018-07-22T07:19:06.615Z,73.10
2018-07-22T07:21:34.291Z,73.00
2018-07-22T07:24:02.031Z,72.80
2018-07-22T07:26:29.698Z,72.90
2018-07-22T07:28:57.378Z,71.50
2018-07-22T07:31:25.203Z,72.20
2018-07-22T07:33:52.924Z,70.60
2018-07-22T07:36:20.840Z,71.30
2018-07-22T07:38:48.551Z,72.00
2018-07-22T07:41:16.265Z,71.70
2018-07-22T07:43:44.439Z,71.10
2018-07-22T07:46:12.150Z,68.70
2018-07-22T07:48:39.826Z,68.90
2018-07-22T07:51:07.557Z,69.80
2018-07-22T07:53:35.313Z,69.60
2018-07-22T07:56:03.136Z,68.20
2018-07-22T07:58:30.837Z,68.70
2018-07-22T08:00:58.598Z,69.90
2018-07-22T08:03:26.357Z,70.00
2018-07-22T08:05:54.071Z,69.70
2018-07-22T08:08:21.781Z,69.40
2018-07-22T08:10:49.484Z,69.10
2018-07-22T08:13:17.221Z,69.30
2018-07-22T08:15:44.979Z,67.80
2018-07-22T08:18:12.718Z,67.00
2018-07-22T08:20:40.481Z,66.00
2018-07-22T08:23:08.299Z,65.60
2018-07-22T08:25:36.425Z,66.50
2018-07-22T08:28:04.291Z,66.60
2018-07-22T08:30:32.119Z,66.60
2018-07-22T08:32:59.858Z,66.30
2018-07-22T08:35:27.571Z,66.20
2018-07-22T08:37:55.310Z,66.30
2018-07-22T08:40:22.971Z,68.00
2018-07-22T08:42:50.727Z,67.10
2018-07-22T08:45:18.612Z,67.60
2018-07-22T08:47:48.076Z,67.70
2018-07-22T08:50:15.923Z,67.10
2018-07-22T08:52:43.814Z,67.50
2018-07-22T08:55:12.229Z,66.40
2018-07-22T08:57:40.148Z,67.10
2018-07-22T09:00:07.861Z,66.40
2018-07-22T09:02:35.606Z,64.90
2018-07-22T09:05:03.615Z,64.30
2018-07-22T09:07:31.263Z,64.50
2018-07-22T09:09:59.232Z,64.00
2018-07-22T09:12:26.892Z,66.00
2018-07-22T09:14:54.600Z,65.70
2018-07-22T09:17:22.330Z,64.00
2018-07-22T09:19:50.086Z,65.60
2018-07-22T09:22:17.860Z,63.90
2018-07-22T09:24:46.434Z,64.80
2018-07-22T09:27:14.984Z,64.30
2018-07-22T09:29:42.700Z,63.80
2018-07-22T09:32:10.704Z,64.80
2018-07-22T09:34:38.414Z,63.50
2018-07-22T09:37:06.102Z,62.20
2018-07-22T09:39:33.849Z,61.80
2018-07-22T09:42:01.521Z,60.90
2018-07-22T09:44:29.230Z,62.10
2018-07-22T09:46:56.939Z,62.20
2018-07-22T09:49:24.730Z,62.50
2018-07-22T09:51:52.434Z,61.80
2018-07-22T09:54:20.318Z,60.70
2018-07-22T09:56:48.006Z,59.40
2018-07-22T09:59:15.844Z,59.30
2018-07-22T10:04:11.186Z,58.20
2018-07-22T10:06:38.974Z,57.40
2018-07-22T10:09:08.043Z,56.30
2018-07-22T10:11:35.892Z,56.20
2018-07-22T10:14:03.704Z,56.20
2018-07-22T10:16:31.462Z,56.20
2018-07-22T10:18:59.383Z,55.70
2018-07-22T10:21:27.097Z,55.70
2018-07-22T10:23:54.776Z,55.50
2018-07-22T10:26:22.468Z,53.90
2018-07-22T10:28:50.206Z,54.30
2018-07-22T10:31:18.171Z,54.80
2018-07-22T10:33:45.917Z,54.30
2018-07-22T10:36:13.629Z,53.70
2018-07-22T10:38:41.398Z,54.50
2018-07-22T10:41:09.182Z,55.40
2018-07-22T10:43:37.038Z,55.00
2018-07-22T10:46:04.973Z,53.70
2018-07-22T10:48:32.702Z,52.60
2018-07-22T10:51:00.431Z,51.90
2018-07-22T10:53:28.270Z,50.10
2018-07-22T10:58:25.589Z,50.60
2018-07-22T11:00:53.457Z,50.00
2018-07-22T11:03:21.185Z,50.60
2018-07-22T11:05:49.827Z,50.90
2018-07-22T11:08:17.567Z,52.00
2018-07-22T11:10:45.298Z,52.20
2018-07-22T11:13:13.059Z,52.70
2018-07-22T11:15:40.750Z,52.60
2018-07-22T11:18:08.666Z,51.90
2018-07-22T11:20:36.369Z,52.70
2018-07-22T11:23:04.160Z,52.40
2018-07-22T11:25:31.847Z,52.60
2018-07-22T11:27:59.762Z,52.50
2018-07-22T11:30:27.534Z,52.60
2018-07-22T11:32:55.241Z,52.90
2018-07-22T11:35:22.986Z,53.30
2018-07-22T11:37:50.659Z,53.80
2018-07-22T11:40:18.464Z,53.70
2018-07-22T11:42:46.311Z,53.90
2018-07-22T11:45:13.995Z,54.00
2018-07-22T11:47:41.672Z,54.10
2018-07-22T11:50:09.580Z,54.40
2018-07-22T11:52:37.268Z,53.50
2018-07-22T11:55:04.934Z,54.10
2018-07-22T11:57:32.635Z,54.00
2018-07-22T12:00:00.294Z,54.10
2018-07-22T12:02:27.976Z,54.20
2018-07-22T12:04:55.648Z,54.30
2018-07-22T12:07:23.425Z,54.30
2018-07-22T12:09:51.080Z,54.00
2018-07-22T12:14:46.698Z,54.10
2018-07-22T12:17:14.458Z,54.20
2018-07-22T12:19:42.150Z,54.50
2018-07-22T12:22:09.860Z,54.80
2018-07-22T12:24:37.528Z,55.40
2018-07-22T12:27:05.781Z,55.40
2018-07-22T12:29:33.436Z,55.10
2018-07-22T12:32:01.152Z,54.30
2018-07-22T12:34:28.986Z,54.40
2018-07-22T12:36:56.894Z,54.40
2018-07-22T12:39:24.631Z,53.80
2018-07-22T12:41:52.348Z,54.80
2018-07-22T12:44:20.254Z,54.60
2018-07-22T12:46:48.063Z,54.10
2018-07-22T12:49:19.195Z,54.70
2018-07-22T12:51:47.327Z,54.20
2018-07-22T12:54:16.160Z,54.50
2018-07-22T12:56:44.661Z,54.70
2018-07-22T12:59:13.082Z,54.30
2018-07-22T13:01:43.680Z,53.80
2018-07-22T13:04:12.860Z,53.80
2018-07-22T13:06:41.157Z,54.80
2018-07-22T13:09:10.947Z,54.40
2018-07-22T13:11:39.259Z,54.10
2018-07-22T13:14:08.109Z,55.20
2018-07-22T13:16:36.666Z,55.10
2018-07-22T13:19:05.581Z,54.90
2018-07-22T13:21:35.006Z,55.10
2018-07-22T13:24:04.541Z,55.40
2018-07-22T13:26:33.350Z,55.00
2018-07-22T13:29:02.208Z,54.50
2018-07-22T13:31:30.747Z,55.60
2018-07-22T13:33:58.774Z,57.40
2018-07-22T13:36:26.775Z,57.80
2018-07-22T13:38:54.448Z,58.40
2018-07-22T13:41:22.198Z,59.00
2018-07-22T13:43:49.910Z,60.40
2018-07-22T13:46:17.817Z,59.70
2018-07-22T13:48:45.860Z,59.50
2018-07-22T13:51:13.559Z,59.50
2018-07-22T13:53:41.370Z,60.70
2018-07-22T13:58:36.780Z,60.80
2018-07-22T14:01:04.513Z,60.00
2018-07-22T14:03:32.313Z,60.70
2018-07-22T14:05:59.980Z,60.60
2018-07-22T14:08:28.525Z,60.60
2018-07-22T14:10:56.823Z,61.50
2018-07-22T14:13:24.631Z,62.20
2018-07-22T14:15:52.842Z,63.10
2018-07-22T14:18:20.961Z,64.80
2018-07-22T14:20:51.447Z,64.80
2018-07-22T14:23:19.267Z,65.10
2018-07-22T14:25:48.034Z,66.10
2018-07-22T14:28:17.214Z,65.20
2018-07-22T14:30:45.961Z,65.50
2018-07-22T14:33:14.996Z,65.30
2018-07-22T14:35:42.899Z,65.70
2018-07-22T14:38:12.638Z,64.80
2018-07-22T14:40:41.621Z,64.00
2018-07-22T14:43:10.692Z,63.80
2018-07-22T14:45:45.578Z,63.70
2018-07-22T14:48:24.918Z,65.70
2018-07-22T14:50:53.115Z,63.70
2018-07-22T14:55:48.517Z,62.70
2018-07-22T14:58:16.414Z,61.60
2018-07-22T15:00:44.217Z,62.10
2018-07-22T15:03:12.058Z,61.50
2018-07-22T15:05:39.878Z,61.30
2018-07-22T15:08:08.712Z,61.80
2018-07-22T15:10:38.591Z,62.70
2018-07-22T15:13:07.879Z,61.80
2018-07-22T15:15:38.699Z,60.90
2018-07-22T15:18:09.760Z,61.70
2018-07-22T15:20:39.041Z,62.10
2018-07-22T15:23:08.337Z,62.80
2018-07-22T15:25:36.274Z,61.90
2018-07-22T15:28:05.081Z,61.80
2018-07-22T15:30:36.106Z,62.40
2018-07-22T15:33:05.017Z,62.20
2018-07-22T15:35:42.781Z,62.80
2018-07-22T15:38:11.841Z,63.40
2018-07-22T15:40:40.287Z,64.20
2018-07-22T15:43:08.133Z,62.80
2018-07-22T15:45:36.070Z,62.60
2018-07-22T15:48:04.122Z,64.30
2018-07-22T15:50:31.929Z,65.30
2018-07-22T15:53:00.927Z,65.40
2018-07-22T15:55:28.831Z,67.00
2018-07-22T15:57:56.552Z,67.50
2018-07-22T16:00:24.682Z,67.70
2018-07-22T16:02:52.663Z,67.30
2018-07-22T16:05:20.391Z,67.10
2018-07-22T16:10:16.869Z,67.30
2018-07-22T16:12:44.667Z,67.70
2018-07-22T16:15:12.414Z,68.10
2018-07-22T16:17:40.222Z,68.20
2018-07-22T16:20:08.004Z,67.70
2018-07-22T16:22:35.739Z,68.10
2018-07-22T16:25:03.470Z,68.30
2018-07-22T16:27:31.124Z,68.50
2018-07-22T16:29:58.989Z,68.90
2018-07-22T16:32:26.734Z,68.30
2018-07-22T16:34:54.462Z,66.90
2018-07-22T16:37:22.255Z,67.80
2018-07-22T16:39:50.171Z,68.40
2018-07-22T16:42:17.940Z,69.40
2018-07-22T16:44:45.658Z,68.90
2018-07-22T16:47:13.425Z,68.80
2018-07-22T16:49:41.238Z,70.00
2018-07-22T16:52:08.994Z,69.20
2018-07-22T16:54:36.909Z,69.80
2018-07-22T16:57:04.622Z,70.00
2018-07-22T16:59:32.406Z,70.90
2018-07-22T17:02:00.128Z,71.20
2018-07-22T17:04:27.868Z,71.70
2018-07-22T17:06:55.724Z,71.70
2018-07-22T17:09:23.459Z,71.90
2018-07-22T17:11:51.162Z,71.80
2018-07-22T17:14:18.966Z,72.10
2018-07-22T17:16:46.731Z,70.90
2018-07-22T17:19:14.434Z,71.30
2018-07-22T17:21:42.183Z,70.90
2018-07-22T17:24:09.944Z,72.00
2018-07-22T17:26:37.767Z,72.00
2018-07-22T17:29:05.821Z,71.40
2018-07-22T17:31:34.138Z,70.90
2018-07-22T17:34:02.555Z,69.80
2018-07-22T17:36:30.277Z,70.30
2018-07-22T17:38:58.255Z,70.00
2018-07-22T17:41:27.902Z,70.50
2018-07-22T17:43:56.309Z,70.10
2018-07-22T17:46:24.689Z,70.70
2018-07-22T17:48:52.477Z,70.10
2018-07-22T17:51:20.514Z,70.40
2018-07-22T17:54:06.147Z,71.30
2018-07-22T18:05:48.533Z,70.90
2018-07-22T18:08:16.484Z,70.50
2018-07-22T18:10:45.554Z,71.10
2018-07-22T18:13:13.633Z,71.20
2018-07-22T18:15:41.880Z,71.60
2018-07-22T18:21:10.396Z,71.20
2018-07-22T18:24:00.484Z,71.50
2018-07-22T18:26:43.103Z,71.60
2018-07-22T18:29:27.632Z,70.90
2018-07-22T18:32:23.570Z,71.60
2018-07-22T18:34:51.367Z,71.30
2018-07-22T18:37:20.046Z,71.50
2018-07-22T18:39:47.954Z,72.10
2018-07-22T18:42:16.375Z,71.30
2018-07-22T18:44:45.836Z,70.60
2018-07-22T18:47:15.409Z,71.20
2018-07-22T18:49:43.189Z,70.90
2018-07-22T18:52:11.024Z,70.90
2018-07-22T18:54:38.792Z,70.80
2018-07-22T18:57:06.594Z,70.50
2018-07-22T19:02:04.000Z,70.20
2018-07-22T19:04:33.242Z,70.20
2018-07-22T19:07:02.152Z,70.20
2018-07-22T19:09:30.641Z,70.20
2018-07-22T19:14:27.294Z,70.90
2018-07-22T19:16:55.293Z,70.60
2018-07-22T19:19:23.071Z,70.60
2018-07-22T19:21:50.844Z,71.00
2018-07-22T19:24:19.098Z,70.20
2018-07-22T19:26:46.773Z,70.30
2018-07-22T19:29:14.492Z,70.40
2018-07-22T19:31:42.835Z,70.20
2018-07-22T19:37:10.284Z,70.20
2018-07-22T19:39:38.090Z,70.60
2018-07-22T19:42:05.993Z,71.40
2018-07-22T19:44:33.883Z,70.70
2018-07-22T19:47:01.770Z,70.80
2018-07-22T19:49:30.422Z,70.80
2018-07-22T19:51:59.206Z,70.70
2018-07-22T19:54:28.090Z,70.70
2018-07-22T19:56:56.491Z,70.70
2018-07-22T19:59:25.063Z,70.80
2018-07-22T20:01:53.785Z,71.40
2018-07-22T20:04:22.603Z,72.10
2018-07-22T20:06:53.077Z,71.10
2018-07-22T20:09:22.208Z,70.70
2018-07-22T20:11:52.899Z,70.50
2018-07-22T20:14:21.618Z,70.40
2018-07-22T20:16:49.339Z,70.70
2018-07-22T20:19:18.311Z,71.10
2018-07-22T20:21:46.453Z,71.10
2018-07-22T20:24:15.985Z,71.00
2018-07-22T20:26:46.489Z,70.90
2018-07-22T20:29:15.387Z,71.90
2018-07-22T20:31:43.626Z,72.10
2018-07-22T20:34:14.777Z,71.50
2018-07-22T20:36:43.571Z,72.30
2018-07-22T20:39:13.233Z,72.10
2018-07-22T20:41:41.534Z,72.70
2018-07-22T20:46:45.347Z,71.80
2018-07-22T20:49:18.521Z,72.20
2018-07-22T20:51:47.285Z,72.50
2018-07-22T20:54:16.481Z,72.90
2018-07-22T20:56:45.060Z,72.90
2018-07-22T20:59:12.807Z,72.60
2018-07-22T21:04:09.578Z,72.00
2018-07-22T21:06:37.553Z,72.00
2018-07-22T21:09:07.267Z,73.10
2018-07-22T21:11:46.493Z,73.10
2018-07-22T21:16:42.619Z,73.70
2018-07-22T21:21:38.121Z,73.00
2018-07-22T21:24:05.952Z,72.80
2018-07-22T21:26:49.789Z,72.30
2018-07-22T21:29:17.788Z,72.90
2018-07-22T21:31:45.454Z,73.40
2018-07-22T21:34:13.194Z,73.30
2018-07-22T21:36:40.905Z,72.70
2018-07-22T21:39:08.642Z,72.50
2018-07-22T21:41:36.352Z,72.40
2018-07-22T21:44:04.182Z,73.40
2018-07-22T21:46:31.974Z,73.60
2018-07-22T21:48:59.775Z,72.80
2018-07-22T21:51:27.470Z,72.50
2018-07-22T21:53:55.727Z,72.70
2018-07-22T21:56:23.394Z,73.30
2018-07-22T21:58:51.110Z,72.70
2018-07-22T22:01:19.456Z,73.10
2018-07-22T22:03:47.191Z,73.60
2018-07-22T22:06:14.889Z,74.10
2018-07-22T22:08:42.623Z,73.80
2018-07-22T22:11:10.291Z,73.70
2018-07-22T22:13:38.050Z,74.10
2018-07-22T22:16:05.795Z,73.40
2018-07-22T22:18:33.528Z,73.30
2018-07-22T22:21:01.246Z,73.00
2018-07-22T22:23:28.941Z,73.40
2018-07-22T22:25:56.630Z,73.80
2018-07-22T22:28:24.390Z,73.50
2018-07-22T22:30:52.082Z,74.30
2018-07-22T22:33:20.115Z,74.10
2018-07-22T22:35:47.865Z,73.40
2018-07-22T22:43:12.934Z,73.50
2018-07-22T22:45:40.681Z,72.90
2018-07-22T22:48:08.376Z,72.40
2018-07-22T22:50:36.196Z,72.30
2018-07-22T22:53:03.934Z,72.20
2018-07-22T22:55:31.930Z,72.90
2018-07-22T22:58:11.097Z,72.20
2018-07-22T23:05:34.106Z,74.00
2018-07-22T23:08:01.903Z,73.40
2018-07-22T23:10:29.614Z,72.90
2018-07-22T23:13:01.171Z,73.10
2018-07-22T23:15:28.849Z,73.40
2018-07-22T23:17:56.615Z,72.80
2018-07-22T23:20:24.353Z,72.50
2018-07-22T23:22:55.933Z,72.50
2018-07-22T23:25:23.658Z,72.40
2018-07-22T23:27:51.408Z,72.70
2018-07-22T23:30:19.133Z,74.00
2018-07-22T23:32:46.874Z,74.30
2018-07-22T23:35:14.702Z,73.10
2018-07-22T23:37:42.404Z,72.20
2018-07-22T23:40:10.225Z,72.10
2018-07-22T23:42:37.939Z,72.50
2018-07-22T23:45:05.846Z,72.60
2018-07-22T23:47:33.583Z,72.90
2018-07-22T23:50:01.308Z,73.40
2018-07-22T23:52:29.129Z,73.30
2018-07-22T23:57:42.093Z,74.40
